createdAt,value
2023-07-15T00:00:00.211Z,22.67
2023-07-15T00:00:13.608Z,22.69
2023-07-15T00:00:25.551Z,22.69
2023-07-15T00:00:37.460Z,22.70
2023-07-15T00:00:52.137Z,22.68
2023-07-15T00:01:10.301Z,22.66
2023-07-15T00:01:25.624Z,22.70
2023-07-15T00:01:38.839Z,22.67
2023-07-15T00:01:51.272Z,22.67
2023-07-15T00:02:03.579Z,22.66
2023-07-15T00:02:15.466Z,22.72
2023-07-15T00:02:27.454Z,22.70
2023-07-15T00:02:39.537Z,22.72
2023-07-15T00:02:51.683Z,22.70
2023-07-15T00:03:19.807Z,22.70
2023-07-15T00:03:31.930Z,22.69
2023-07-15T00:03:44.041Z,22.62
2023-07-15T00:03:56.683Z,22.66
2023-07-15T00:04:13.131Z,22.69
2023-07-15T00:04:25.470Z,22.65
2023-07-15T00:04:37.534Z,22.64
2023-07-15T00:04:49.605Z,22.71
2023-07-15T00:05:01.840Z,22.70
2023-07-15T00:05:19.090Z,22.66
2023-07-15T00:05:33.028Z,22.70
2023-07-15T00:05:45.226Z,22.69
2023-07-15T00:05:57.174Z,22.67
2023-07-15T00:06:10.750Z,22.68
2023-07-15T00:06:24.458Z,22.66
2023-07-15T00:06:36.431Z,22.66
2023-07-15T00:06:48.757Z,22.68
2023-07-15T00:07:00.900Z,22.64
2023-07-15T00:07:13.074Z,22.68
2023-07-15T00:07:25.239Z,22.68
2023-07-15T00:07:37.542Z,22.63
2023-07-15T00:07:49.918Z,22.69
2023-07-15T00:08:02.270Z,22.65
2023-07-15T00:08:15.011Z,22.61
2023-07-15T00:08:28.684Z,22.61
2023-07-15T00:08:40.939Z,22.65
2023-07-15T00:08:53.647Z,22.65
2023-07-15T00:09:08.213Z,22.63
2023-07-15T00:09:20.573Z,22.65
2023-07-15T00:09:32.713Z,22.67
2023-07-15T00:09:44.672Z,22.68
2023-07-15T00:09:56.696Z,22.59
2023-07-15T00:10:09.912Z,22.66
2023-07-15T00:10:23.243Z,22.66
2023-07-15T00:10:38.575Z,22.63
2023-07-15T00:10:50.903Z,22.66
2023-07-15T00:11:03.559Z,22.67
2023-07-15T00:11:22.282Z,22.66
2023-07-15T00:11:37.489Z,22.66
2023-07-15T00:11:49.393Z,22.67
2023-07-15T00:12:01.488Z,22.68
2023-07-15T00:12:13.505Z,22.59
2023-07-15T00:12:25.684Z,22.67
2023-07-15T00:12:39.600Z,22.61
2023-07-15T00:12:51.682Z,22.67
2023-07-15T00:13:03.970Z,22.60
2023-07-15T00:13:17.669Z,22.62
2023-07-15T00:13:29.751Z,22.64
2023-07-15T00:13:41.817Z,22.64
2023-07-15T00:13:57.400Z,22.68
2023-07-15T00:14:18.386Z,22.62
2023-07-15T00:14:38.038Z,22.67
2023-07-15T00:14:50.101Z,22.67
2023-07-15T00:15:02.233Z,22.66
2023-07-15T00:15:14.758Z,22.67
2023-07-15T00:15:27.202Z,22.66
2023-07-15T00:15:39.368Z,22.61
2023-07-15T00:15:52.457Z,22.59
2023-07-15T00:16:04.731Z,22.66
2023-07-15T00:16:17.126Z,22.66
2023-07-15T00:16:31.383Z,22.64
2023-07-15T00:16:43.759Z,22.64
2023-07-15T00:16:56.143Z,22.60
2023-07-15T00:17:08.762Z,22.64
2023-07-15T00:17:20.688Z,22.62
2023-07-15T00:17:32.761Z,22.60
2023-07-15T00:17:45.349Z,22.60
2023-07-15T00:17:57.652Z,22.61
2023-07-15T00:18:11.525Z,22.63
2023-07-15T00:18:23.668Z,22.61
2023-07-15T00:18:35.858Z,22.61
2023-07-15T00:18:48.443Z,22.61
2023-07-15T00:19:00.662Z,22.53
2023-07-15T00:19:12.719Z,22.62
2023-07-15T00:19:25.151Z,22.61
2023-07-15T00:19:37.155Z,22.54
2023-07-15T00:19:51.660Z,22.55
2023-07-15T00:20:04.517Z,22.58
2023-07-15T00:20:16.714Z,22.60
2023-07-15T00:20:29.002Z,22.60
2023-07-15T00:20:41.456Z,22.53
2023-07-15T00:20:53.620Z,22.58
2023-07-15T00:21:15.150Z,22.52
2023-07-15T00:21:29.188Z,22.58
2023-07-15T00:21:41.269Z,22.54
2023-07-15T00:21:53.468Z,22.58
2023-07-15T00:22:06.324Z,22.52
2023-07-15T00:22:18.367Z,22.56
2023-07-15T00:22:30.421Z,22.51
2023-07-15T00:22:43.332Z,22.55
2023-07-15T00:22:55.724Z,22.55
2023-07-15T00:23:22.418Z,22.52
2023-07-15T00:23:35.832Z,22.51
2023-07-15T00:23:48.856Z,22.52
2023-07-15T00:24:01.140Z,22.56
2023-07-15T00:24:13.149Z,22.49
2023-07-15T00:24:25.315Z,22.50
2023-07-15T00:24:45.949Z,22.53
2023-07-15T00:24:58.086Z,22.54
2023-07-15T00:25:13.789Z,22.51
2023-07-15T00:25:26.335Z,22.55
2023-07-15T00:25:38.260Z,22.49
2023-07-15T00:25:51.738Z,22.49
2023-07-15T00:26:04.126Z,22.57
2023-07-15T00:26:16.383Z,22.53
2023-07-15T00:26:31.634Z,22.51
2023-07-15T00:26:43.910Z,22.49
2023-07-15T00:26:56.100Z,22.51
2023-07-15T00:27:09.304Z,22.53
2023-07-15T00:27:21.426Z,22.54
2023-07-15T00:27:33.706Z,22.50
2023-07-15T00:27:46.312Z,22.49
2023-07-15T00:27:58.350Z,22.48
2023-07-15T00:28:13.063Z,22.50
2023-07-15T00:28:25.121Z,22.50
2023-07-15T00:28:37.343Z,22.50
2023-07-15T00:28:49.800Z,22.49
2023-07-15T00:29:02.891Z,22.46
2023-07-15T00:29:15.204Z,22.47
2023-07-15T00:29:27.432Z,22.49
2023-07-15T00:29:40.180Z,22.45
2023-07-15T00:29:52.596Z,22.42
2023-07-15T00:30:05.688Z,22.48
2023-07-15T00:30:19.156Z,22.45
2023-07-15T00:30:32.678Z,22.47
2023-07-15T00:30:48.384Z,22.47
2023-07-15T00:31:01.604Z,22.45
2023-07-15T00:31:15.756Z,22.38
2023-07-15T00:31:28.917Z,22.45
2023-07-15T00:31:41.068Z,22.44
2023-07-15T00:31:53.228Z,22.45
2023-07-15T00:32:11.328Z,22.44
2023-07-15T00:32:23.432Z,22.38
2023-07-15T00:32:35.725Z,22.39
2023-07-15T00:32:49.609Z,22.43
2023-07-15T00:33:02.212Z,22.43
2023-07-15T00:33:16.619Z,22.42
2023-07-15T00:33:31.085Z,22.46
2023-07-15T00:33:43.584Z,22.44
2023-07-15T00:33:55.845Z,22.39
2023-07-15T00:34:09.511Z,22.43
2023-07-15T00:34:21.803Z,22.39
2023-07-15T00:34:33.975Z,22.44
2023-07-15T00:34:49.094Z,22.38
2023-07-15T00:35:04.718Z,22.42
2023-07-15T00:35:23.076Z,22.41
2023-07-15T00:35:35.560Z,22.41
2023-07-15T00:35:49.340Z,22.36
2023-07-15T00:36:01.326Z,22.41
2023-07-15T00:36:14.782Z,22.36
2023-07-15T00:36:27.961Z,22.42
2023-07-15T00:36:40.413Z,22.42
2023-07-15T00:36:55.237Z,22.38
2023-07-15T00:37:08.212Z,22.39
2023-07-15T00:37:20.430Z,22.39
2023-07-15T00:37:32.631Z,22.41
2023-07-15T00:37:44.832Z,22.40
2023-07-15T00:37:57.101Z,22.41
2023-07-15T00:38:09.173Z,22.37
2023-07-15T00:38:21.164Z,22.36
2023-07-15T00:38:33.205Z,22.42
2023-07-15T00:38:46.911Z,22.39
2023-07-15T00:38:58.879Z,22.40
2023-07-15T00:39:10.916Z,22.39
2023-07-15T00:39:22.985Z,22.39
2023-07-15T00:39:35.245Z,22.39
2023-07-15T00:39:47.943Z,22.35
2023-07-15T00:40:00.249Z,22.40
2023-07-15T00:40:13.430Z,22.35
2023-07-15T00:40:26.550Z,22.37
2023-07-15T00:40:41.786Z,22.38
2023-07-15T00:40:53.989Z,22.38
2023-07-15T00:41:13.071Z,22.40
2023-07-15T00:41:29.580Z,22.33
2023-07-15T00:41:41.663Z,22.33
2023-07-15T00:41:56.950Z,22.36
2023-07-15T00:42:17.145Z,22.32
2023-07-15T00:43:02.834Z,22.37
2023-07-15T00:43:51.738Z,22.36
2023-07-15T00:44:03.305Z,22.35
2023-07-15T00:44:18.009Z,22.36
2023-07-15T00:44:29.698Z,22.37
2023-07-15T00:44:41.471Z,22.36
2023-07-15T00:44:59.612Z,22.30
2023-07-15T00:45:11.800Z,22.35
2023-07-15T00:45:23.483Z,22.37
2023-07-15T00:45:34.991Z,22.34
2023-07-15T00:46:29.849Z,22.33
2023-07-15T00:47:14.180Z,22.34
2023-07-15T00:47:32.659Z,22.34
2023-07-15T00:47:48.729Z,22.34
2023-07-15T00:48:14.499Z,22.33
2023-07-15T00:48:30.716Z,22.34
2023-07-15T00:48:52.050Z,22.30
2023-07-15T00:49:06.967Z,22.33
2023-07-15T00:49:21.806Z,22.36
2023-07-15T00:49:36.189Z,22.34
2023-07-15T00:49:49.901Z,22.35
2023-07-15T00:50:02.111Z,22.32
2023-07-15T00:50:15.000Z,22.35
2023-07-15T00:50:27.862Z,22.37
2023-07-15T00:50:42.147Z,22.32
2023-07-15T00:50:54.273Z,22.33
2023-07-15T00:51:06.474Z,22.28
2023-07-15T00:51:18.916Z,22.36
2023-07-15T00:51:34.514Z,22.32
2023-07-15T00:51:49.703Z,22.33
2023-07-15T00:52:05.149Z,22.29
2023-07-15T00:52:21.287Z,22.32
2023-07-15T00:52:33.622Z,22.31
2023-07-15T00:52:46.122Z,22.33
2023-07-15T00:52:58.630Z,22.32
2023-07-15T00:53:11.458Z,22.32
2023-07-15T00:53:23.781Z,22.29
2023-07-15T00:53:36.076Z,22.28
2023-07-15T00:53:49.970Z,22.31
2023-07-15T00:54:03.827Z,22.30
2023-07-15T00:54:17.323Z,22.31
2023-07-15T00:54:31.295Z,22.30
2023-07-15T00:54:49.093Z,22.29
2023-07-15T00:55:12.641Z,22.29
2023-07-15T00:55:26.400Z,22.25
2023-07-15T00:55:38.860Z,22.28
2023-07-15T00:55:53.029Z,22.28
2023-07-15T00:56:05.885Z,22.23
2023-07-15T00:56:18.679Z,22.27
2023-07-15T00:56:32.835Z,22.23
2023-07-15T00:56:46.319Z,22.29
2023-07-15T00:56:59.503Z,22.27
2023-07-15T00:57:13.468Z,22.26
2023-07-15T00:57:27.689Z,22.29
2023-07-15T00:57:40.505Z,22.27
2023-07-15T00:57:55.850Z,22.21
2023-07-15T00:58:08.220Z,22.26
2023-07-15T00:58:20.531Z,22.28
2023-07-15T00:58:33.204Z,22.21
2023-07-15T00:58:45.456Z,22.28
2023-07-15T00:58:57.970Z,22.28
2023-07-15T00:59:13.569Z,22.26
2023-07-15T00:59:25.757Z,22.25
2023-07-15T00:59:38.077Z,22.26
2023-07-15T00:59:52.080Z,22.27
2023-07-15T01:00:06.358Z,22.28
2023-07-15T01:00:18.568Z,22.23
2023-07-15T01:00:33.271Z,22.23
2023-07-15T01:00:45.642Z,22.23
2023-07-15T01:00:59.505Z,22.28
2023-07-15T01:01:12.018Z,22.26
2023-07-15T01:01:24.621Z,22.22
2023-07-15T01:01:37.456Z,22.26
2023-07-15T01:01:50.764Z,22.23
2023-07-15T01:02:06.421Z,22.20
2023-07-15T01:02:19.173Z,22.23
2023-07-15T01:02:31.740Z,22.27
2023-07-15T01:02:43.920Z,22.23
2023-07-15T01:02:56.321Z,22.27
2023-07-15T01:03:08.481Z,22.25
2023-07-15T01:03:20.879Z,22.21
2023-07-15T01:03:33.972Z,22.26
2023-07-15T01:03:47.702Z,22.26
2023-07-15T01:04:00.023Z,22.28
2023-07-15T01:04:12.313Z,22.26
2023-07-15T01:04:24.473Z,22.23
2023-07-15T01:04:37.309Z,22.23
2023-07-15T01:04:51.335Z,22.23
2023-07-15T01:05:04.820Z,22.23
2023-07-15T01:05:18.822Z,22.21
2023-07-15T01:05:36.666Z,22.23
2023-07-15T01:05:49.065Z,22.27
2023-07-15T01:06:01.302Z,22.27
2023-07-15T01:06:13.828Z,22.27
2023-07-15T01:06:26.777Z,22.24
2023-07-15T01:06:39.186Z,22.23
2023-07-15T01:06:51.395Z,22.27
2023-07-15T01:07:04.025Z,22.22
2023-07-15T01:07:16.133Z,22.26
2023-07-15T01:07:28.221Z,22.26
2023-07-15T01:07:40.408Z,22.22
2023-07-15T01:07:52.640Z,22.30
2023-07-15T01:08:05.065Z,22.27
2023-07-15T01:08:17.227Z,22.25
2023-07-15T01:08:29.417Z,22.27
2023-07-15T01:08:41.621Z,22.27
2023-07-15T01:08:53.799Z,22.25
2023-07-15T01:09:05.927Z,22.26
2023-07-15T01:09:18.162Z,22.25
2023-07-15T01:09:33.763Z,22.27
2023-07-15T01:09:49.003Z,22.22
2023-07-15T01:10:01.154Z,22.25
2023-07-15T01:10:14.809Z,22.19
2023-07-15T01:10:28.387Z,22.22
2023-07-15T01:10:41.164Z,22.22
2023-07-15T01:10:53.773Z,22.21
2023-07-15T01:11:07.848Z,22.18
2023-07-15T01:11:20.061Z,22.22
2023-07-15T01:11:32.530Z,22.20
2023-07-15T01:11:45.905Z,22.18
2023-07-15T01:11:58.334Z,22.19
2023-07-15T01:12:13.815Z,22.18
2023-07-15T01:12:26.091Z,22.21
2023-07-15T01:12:38.471Z,22.17
2023-07-15T01:12:50.720Z,22.20
2023-07-15T01:13:06.603Z,22.19
2023-07-15T01:13:18.824Z,22.17
2023-07-15T01:13:31.362Z,22.16
2023-07-15T01:13:44.076Z,22.19
2023-07-15T01:13:56.224Z,22.19
2023-07-15T01:14:09.273Z,22.15
2023-07-15T01:14:21.655Z,22.16
2023-07-15T01:14:33.893Z,22.17
2023-07-15T01:14:47.799Z,22.16
2023-07-15T01:14:59.938Z,22.11
2023-07-15T01:15:12.245Z,22.08
2023-07-15T01:15:24.630Z,22.16
2023-07-15T01:15:37.050Z,22.13
2023-07-15T01:15:49.122Z,22.14
2023-07-15T01:16:04.600Z,22.10
2023-07-15T01:16:18.631Z,22.13
2023-07-15T01:16:31.062Z,22.11
2023-07-15T01:16:45.221Z,22.13
2023-07-15T01:16:57.883Z,22.13
2023-07-15T01:17:10.212Z,22.12
2023-07-15T01:17:22.348Z,22.11
2023-07-15T01:17:35.211Z,22.10
2023-07-15T01:17:47.630Z,22.11
2023-07-15T01:18:00.434Z,22.11
2023-07-15T01:18:12.857Z,22.11
2023-07-15T01:18:25.649Z,22.10
2023-07-15T01:18:37.858Z,22.06
2023-07-15T01:18:50.080Z,22.04
2023-07-15T01:19:02.411Z,22.04
2023-07-15T01:19:14.940Z,22.07
2023-07-15T01:19:27.355Z,22.08
2023-07-15T01:19:39.958Z,22.09
2023-07-15T01:19:52.144Z,22.05
2023-07-15T01:20:05.245Z,22.08
2023-07-15T01:20:19.972Z,22.06
2023-07-15T01:20:34.822Z,22.07
2023-07-15T01:20:47.374Z,22.06
2023-07-15T01:20:59.956Z,22.05
2023-07-15T01:21:15.089Z,22.04
2023-07-15T01:21:30.812Z,22.05
2023-07-15T01:21:43.205Z,22.03
2023-07-15T01:21:55.947Z,21.98
2023-07-15T01:22:08.314Z,22.04
2023-07-15T01:22:22.580Z,22.03
2023-07-15T01:22:38.097Z,22.01
2023-07-15T01:22:50.423Z,22.02
2023-07-15T01:23:04.045Z,22.04
2023-07-15T01:23:18.726Z,22.01
2023-07-15T01:23:31.489Z,21.98
2023-07-15T01:23:43.927Z,22.00
2023-07-15T01:23:56.325Z,21.98
2023-07-15T01:24:09.121Z,22.00
2023-07-15T01:24:22.456Z,21.98
2023-07-15T01:24:37.114Z,21.95
2023-07-15T01:24:49.552Z,21.98
2023-07-15T01:25:01.941Z,21.98
2023-07-15T01:25:17.063Z,21.91
2023-07-15T01:25:29.327Z,21.98
2023-07-15T01:25:41.509Z,21.97
2023-07-15T01:25:56.008Z,21.95
2023-07-15T01:26:08.633Z,21.93
2023-07-15T01:26:21.933Z,21.96
2023-07-15T01:26:34.795Z,21.93
2023-07-15T01:26:47.862Z,21.86
2023-07-15T01:27:07.061Z,21.92
2023-07-15T01:27:19.395Z,21.90
2023-07-15T01:27:31.511Z,21.92
2023-07-15T01:27:43.769Z,21.87
2023-07-15T01:27:55.843Z,21.89
2023-07-15T01:28:07.855Z,21.85
2023-07-15T01:28:20.413Z,21.86
2023-07-15T01:28:32.607Z,21.89
2023-07-15T01:28:44.766Z,21.89
2023-07-15T01:28:57.117Z,21.86
2023-07-15T01:29:09.480Z,21.88
2023-07-15T01:29:21.786Z,21.89
2023-07-15T01:29:34.171Z,21.88
2023-07-15T01:29:47.642Z,21.89
2023-07-15T01:29:59.851Z,21.88
2023-07-15T01:30:12.343Z,21.88
2023-07-15T01:30:24.522Z,21.83
2023-07-15T01:30:37.425Z,21.87
2023-07-15T01:30:49.786Z,21.87
2023-07-15T01:31:05.498Z,21.84
2023-07-15T01:31:18.715Z,21.85
2023-07-15T01:31:31.453Z,21.86
2023-07-15T01:31:43.984Z,21.85
2023-07-15T01:31:56.383Z,21.80
2023-07-15T01:32:09.165Z,21.85
2023-07-15T01:32:21.573Z,21.84
2023-07-15T01:32:34.097Z,21.85
2023-07-15T01:32:46.665Z,21.85
2023-07-15T01:32:59.617Z,21.83
2023-07-15T01:33:11.905Z,21.82
2023-07-15T01:33:26.103Z,21.82
2023-07-15T01:33:38.383Z,21.80
2023-07-15T01:33:53.134Z,21.83
2023-07-15T01:34:06.816Z,21.83
2023-07-15T01:34:19.152Z,21.83
2023-07-15T01:34:31.753Z,21.82
2023-07-15T01:34:44.137Z,21.81
2023-07-15T01:34:56.401Z,21.81
2023-07-15T01:35:09.509Z,21.81
2023-07-15T01:35:21.692Z,21.83
2023-07-15T01:35:33.697Z,21.77
2023-07-15T01:35:48.314Z,21.78
2023-07-15T01:36:00.667Z,21.75
2023-07-15T01:36:13.054Z,21.80
2023-07-15T01:36:25.787Z,21.80
2023-07-15T01:36:38.472Z,21.81
2023-07-15T01:36:50.893Z,21.79
2023-07-15T01:37:03.544Z,21.72
2023-07-15T01:37:15.784Z,21.79
2023-07-15T01:37:28.042Z,21.73
2023-07-15T01:37:42.159Z,21.78
2023-07-15T01:37:54.568Z,21.77
2023-07-15T01:38:06.981Z,21.79
2023-07-15T01:38:20.779Z,21.77
2023-07-15T01:38:33.011Z,21.79
2023-07-15T01:38:45.607Z,21.77
2023-07-15T01:38:57.761Z,21.72
2023-07-15T01:39:10.157Z,21.76
2023-07-15T01:39:22.630Z,21.76
2023-07-15T01:39:37.598Z,21.74
2023-07-15T01:39:49.842Z,21.71
2023-07-15T01:40:05.476Z,21.70
2023-07-15T01:40:18.823Z,21.70
2023-07-15T01:40:31.162Z,21.70
2023-07-15T01:40:44.318Z,21.70
2023-07-15T01:40:58.731Z,21.68
2023-07-15T01:41:10.990Z,21.71
2023-07-15T01:41:23.506Z,21.72
2023-07-15T01:41:36.165Z,21.67
2023-07-15T01:41:48.490Z,21.66
2023-07-15T01:42:00.852Z,21.72
2023-07-15T01:42:15.029Z,21.70
2023-07-15T01:42:27.429Z,21.68
2023-07-15T01:42:39.767Z,21.70
2023-07-15T01:42:52.384Z,21.70
2023-07-15T01:43:04.854Z,21.64
2023-07-15T01:43:21.318Z,21.66
2023-07-15T01:43:34.116Z,21.67
2023-07-15T01:43:46.540Z,21.68
2023-07-15T01:43:58.666Z,21.63
2023-07-15T01:44:15.840Z,21.67
2023-07-15T01:44:31.315Z,21.68
2023-07-15T01:44:44.008Z,21.64
2023-07-15T01:45:00.875Z,21.67
2023-07-15T01:45:13.347Z,21.65
2023-07-15T01:45:25.684Z,21.65
2023-07-15T01:45:38.505Z,21.61
2023-07-15T01:45:52.531Z,21.58
2023-07-15T01:46:05.009Z,21.61
2023-07-15T01:46:17.433Z,21.64
2023-07-15T01:46:29.988Z,21.63
2023-07-15T01:46:42.384Z,21.64
2023-07-15T01:46:54.909Z,21.59
2023-07-15T01:47:07.586Z,21.63
2023-07-15T01:47:20.135Z,21.61
2023-07-15T01:47:35.110Z,21.62
2023-07-15T01:47:48.252Z,21.60
2023-07-15T01:48:00.721Z,21.61
2023-07-15T01:48:13.068Z,21.62
2023-07-15T01:48:29.543Z,21.58
2023-07-15T01:48:42.054Z,21.60
2023-07-15T01:48:57.219Z,21.61
2023-07-15T01:49:09.810Z,21.57
2023-07-15T01:49:22.087Z,21.59
2023-07-15T01:49:36.220Z,21.60
2023-07-15T01:49:48.782Z,21.56
2023-07-15T01:50:01.387Z,21.52
2023-07-15T01:50:13.814Z,21.56
2023-07-15T01:50:26.390Z,21.60
2023-07-15T01:50:38.759Z,21.54
2023-07-15T01:50:51.099Z,21.62
2023-07-15T01:51:03.479Z,21.57
2023-07-15T01:51:15.882Z,21.60
2023-07-15T01:51:30.871Z,21.60
2023-07-15T01:51:44.702Z,21.55
2023-07-15T01:51:56.966Z,21.51
2023-07-15T01:52:09.525Z,21.60
2023-07-15T01:52:21.970Z,21.53
2023-07-15T01:52:34.281Z,21.60
2023-07-15T01:52:48.362Z,21.53
2023-07-15T01:53:00.627Z,21.58
2023-07-15T01:53:13.199Z,21.56
2023-07-15T01:53:30.926Z,21.59
2023-07-15T01:53:44.458Z,21.58
2023-07-15T01:53:56.554Z,21.55
2023-07-15T01:54:10.405Z,21.51
2023-07-15T01:54:22.441Z,21.55
2023-07-15T01:54:37.254Z,21.52
2023-07-15T01:54:49.716Z,21.58
2023-07-15T01:55:02.034Z,21.56
2023-07-15T01:55:14.192Z,21.57
2023-07-15T01:55:26.551Z,21.53
2023-07-15T01:55:38.552Z,21.52
2023-07-15T01:55:51.195Z,21.55
2023-07-15T01:56:05.548Z,21.56
2023-07-15T01:56:18.095Z,21.56
2023-07-15T01:56:33.213Z,21.56
2023-07-15T01:56:45.645Z,21.55
2023-07-15T01:56:57.774Z,21.50
2023-07-15T01:57:10.632Z,21.55
2023-07-15T01:57:22.918Z,21.54
2023-07-15T01:57:35.566Z,21.56
2023-07-15T01:57:47.933Z,21.49
2023-07-15T01:58:00.223Z,21.48
2023-07-15T01:58:12.580Z,21.56
2023-07-15T01:58:24.919Z,21.55
2023-07-15T01:58:37.616Z,21.54
2023-07-15T01:58:50.799Z,21.54
2023-07-15T01:59:03.202Z,21.49
2023-07-15T01:59:15.471Z,21.49
2023-07-15T01:59:30.070Z,21.52
2023-07-15T01:59:42.757Z,21.54
2023-07-15T01:59:55.188Z,21.52
2023-07-15T02:00:10.104Z,21.49
2023-07-15T02:00:25.904Z,21.51
2023-07-15T02:00:38.456Z,21.46
2023-07-15T02:00:50.992Z,21.53
2023-07-15T02:01:03.536Z,21.51
2023-07-15T02:01:15.749Z,21.51
2023-07-15T02:01:28.372Z,21.49
2023-07-15T02:01:41.209Z,21.51
2023-07-15T02:01:56.346Z,21.50
2023-07-15T02:02:09.131Z,21.48
2023-07-15T02:02:21.450Z,21.54
2023-07-15T02:02:33.703Z,21.51
2023-07-15T02:02:46.530Z,21.50
2023-07-15T02:02:59.352Z,21.50
2023-07-15T02:03:11.846Z,21.49
2023-07-15T02:03:24.526Z,21.50
2023-07-15T02:03:36.989Z,21.49
2023-07-15T02:03:49.539Z,21.50
2023-07-15T02:04:02.162Z,21.50
2023-07-15T02:04:14.568Z,21.49
2023-07-15T02:04:27.223Z,21.50
2023-07-15T02:04:39.753Z,21.42
2023-07-15T02:04:52.077Z,21.48
2023-07-15T02:05:05.578Z,21.50
2023-07-15T02:05:17.668Z,21.45
2023-07-15T02:05:30.206Z,21.48
2023-07-15T02:05:44.826Z,21.49
2023-07-15T02:05:57.317Z,21.46
2023-07-15T02:06:09.887Z,21.49
2023-07-15T02:06:23.017Z,21.51
2023-07-15T02:06:35.501Z,21.49
2023-07-15T02:06:48.089Z,21.50
2023-07-15T02:07:00.418Z,21.47
2023-07-15T02:07:12.887Z,21.50
2023-07-15T02:07:25.090Z,21.50
2023-07-15T02:07:37.431Z,21.51
2023-07-15T02:07:51.098Z,21.48
2023-07-15T02:08:06.593Z,21.47
2023-07-15T02:08:18.861Z,21.50
2023-07-15T02:08:31.141Z,21.47
2023-07-15T02:08:43.233Z,21.50
2023-07-15T02:08:57.902Z,21.45
2023-07-15T02:09:12.131Z,21.43
2023-07-15T02:09:24.460Z,21.46
2023-07-15T02:09:37.017Z,21.49
2023-07-15T02:09:49.335Z,21.46
2023-07-15T02:10:01.611Z,21.50
2023-07-15T02:10:14.092Z,21.48
2023-07-15T02:10:26.610Z,21.48
2023-07-15T02:10:39.039Z,21.49
2023-07-15T02:10:50.992Z,21.50
2023-07-15T02:11:03.229Z,21.46
2023-07-15T02:11:15.538Z,21.45
2023-07-15T02:11:27.756Z,21.48
2023-07-15T02:11:39.945Z,21.49
2023-07-15T02:11:55.191Z,21.42
2023-07-15T02:12:08.568Z,21.48
2023-07-15T02:12:21.215Z,21.43
2023-07-15T02:12:33.480Z,21.41
2023-07-15T02:12:45.675Z,21.43
2023-07-15T02:12:57.871Z,21.47
2023-07-15T02:13:10.466Z,21.47
2023-07-15T02:13:22.506Z,21.46
2023-07-15T02:13:34.775Z,21.42
2023-07-15T02:13:46.955Z,21.40
2023-07-15T02:13:59.440Z,21.45
2023-07-15T02:14:12.008Z,21.45
2023-07-15T02:14:24.347Z,21.45
2023-07-15T02:14:37.076Z,21.40
2023-07-15T02:14:52.493Z,21.40
2023-07-15T02:15:05.959Z,21.45
2023-07-15T02:15:18.509Z,21.42
2023-07-15T02:15:30.782Z,21.44
2023-07-15T02:15:43.168Z,21.44
2023-07-15T02:15:56.553Z,21.44
2023-07-15T02:16:09.493Z,21.45
2023-07-15T02:16:21.965Z,21.38
2023-07-15T02:16:36.345Z,21.40
2023-07-15T02:16:48.960Z,21.43
2023-07-15T02:17:01.405Z,21.38
2023-07-15T02:17:16.161Z,21.38
2023-07-15T02:17:28.225Z,21.43
2023-07-15T02:17:44.681Z,21.40
2023-07-15T02:17:57.296Z,21.34
2023-07-15T02:18:09.715Z,21.43
2023-07-15T02:18:22.606Z,21.42
2023-07-15T02:18:39.762Z,21.39
2023-07-15T02:18:52.463Z,21.41
2023-07-15T02:19:04.795Z,21.38
2023-07-15T02:19:20.108Z,21.37
2023-07-15T02:19:35.022Z,21.41
2023-07-15T02:19:47.158Z,21.40
2023-07-15T02:19:59.680Z,21.33
2023-07-15T02:20:13.033Z,21.43
2023-07-15T02:20:26.259Z,21.37
2023-07-15T02:20:38.757Z,21.40
2023-07-15T02:20:51.256Z,21.39
2023-07-15T02:21:04.530Z,21.38
2023-07-15T02:21:16.975Z,21.40
2023-07-15T02:21:29.594Z,21.40
2023-07-15T02:21:42.428Z,21.40
2023-07-15T02:21:54.497Z,21.40
2023-07-15T02:22:09.257Z,21.36
2023-07-15T02:22:24.428Z,21.39
2023-07-15T02:22:37.051Z,21.35
2023-07-15T02:22:50.981Z,21.39
2023-07-15T02:23:04.104Z,21.36
2023-07-15T02:23:16.926Z,21.39
2023-07-15T02:23:32.488Z,21.37
2023-07-15T02:23:45.483Z,21.38
2023-07-15T02:23:58.487Z,21.40
2023-07-15T02:24:11.009Z,21.39
2023-07-15T02:24:23.691Z,21.34
2023-07-15T02:24:39.319Z,21.39
2023-07-15T02:25:00.671Z,21.34
2023-07-15T02:25:15.862Z,21.39
2023-07-15T02:25:30.257Z,21.39
2023-07-15T02:25:45.813Z,21.34
2023-07-15T02:25:58.668Z,21.39
2023-07-15T02:26:10.963Z,21.40
2023-07-15T02:26:23.507Z,21.42
2023-07-15T02:26:36.044Z,21.38
2023-07-15T02:26:48.674Z,21.34
2023-07-15T02:27:00.966Z,21.38
2023-07-15T02:27:16.801Z,21.31
2023-07-15T02:27:31.570Z,21.39
2023-07-15T02:27:44.191Z,21.40
2023-07-15T02:27:58.928Z,21.41
2023-07-15T02:28:11.487Z,21.42
2023-07-15T02:28:24.428Z,21.41
2023-07-15T02:28:36.869Z,21.35
2023-07-15T02:28:49.472Z,21.37
2023-07-15T02:29:02.108Z,21.34
2023-07-15T02:29:22.339Z,21.39
2023-07-15T02:29:34.873Z,21.38
2023-07-15T02:29:47.875Z,21.31
2023-07-15T02:30:00.679Z,21.35
2023-07-15T02:30:13.535Z,21.35
2023-07-15T02:30:26.179Z,21.40
2023-07-15T02:30:41.246Z,21.37
2023-07-15T02:30:54.132Z,21.39
2023-07-15T02:31:06.998Z,21.34
2023-07-15T02:31:20.034Z,21.36
2023-07-15T02:31:32.753Z,21.35
2023-07-15T02:31:45.758Z,21.38
2023-07-15T02:32:03.249Z,21.38
2023-07-15T02:32:17.033Z,21.35
2023-07-15T02:32:36.920Z,21.34
2023-07-15T02:32:49.960Z,21.36
2023-07-15T02:33:02.949Z,21.35
2023-07-15T02:33:15.579Z,21.33
2023-07-15T02:33:28.076Z,21.37
2023-07-15T02:33:40.291Z,21.29
2023-07-15T02:33:55.258Z,21.37
2023-07-15T02:34:07.432Z,21.36
2023-07-15T02:34:19.797Z,21.37
2023-07-15T02:34:32.322Z,21.37
2023-07-15T02:34:47.762Z,21.31
2023-07-15T02:35:00.174Z,21.36
2023-07-15T02:35:14.231Z,21.30
2023-07-15T02:35:26.764Z,21.31
2023-07-15T02:35:40.568Z,21.29
2023-07-15T02:35:53.208Z,21.37
2023-07-15T02:36:05.822Z,21.39
2023-07-15T02:36:18.065Z,21.38
2023-07-15T02:36:30.470Z,21.38
2023-07-15T02:36:43.164Z,21.37
2023-07-15T02:36:55.760Z,21.34
2023-07-15T02:37:08.159Z,21.38
2023-07-15T02:37:22.021Z,21.38
2023-07-15T02:37:37.542Z,21.32
2023-07-15T02:37:51.755Z,21.38
2023-07-15T02:38:03.976Z,21.34
2023-07-15T02:38:17.558Z,21.38
2023-07-15T02:38:29.612Z,21.38
2023-07-15T02:38:42.118Z,21.36
2023-07-15T02:38:54.441Z,21.38
2023-07-15T02:39:06.738Z,21.31
2023-07-15T02:39:21.731Z,21.34
2023-07-15T02:39:34.230Z,21.38
2023-07-15T02:39:47.851Z,21.37
2023-07-15T02:40:00.220Z,21.37
2023-07-15T02:40:13.161Z,21.35
2023-07-15T02:40:25.569Z,21.38
2023-07-15T02:40:41.518Z,21.33
2023-07-15T02:40:56.053Z,21.39
2023-07-15T02:41:08.226Z,21.37
2023-07-15T02:41:20.483Z,21.32
2023-07-15T02:41:33.569Z,21.35
2023-07-15T02:41:46.028Z,21.31
2023-07-15T02:41:58.271Z,21.37
2023-07-15T02:42:10.476Z,21.34
2023-07-15T02:42:22.812Z,21.35
2023-07-15T02:42:35.168Z,21.37
2023-07-15T02:42:50.460Z,21.37
2023-07-15T02:43:02.885Z,21.37
2023-07-15T02:43:15.548Z,21.29
2023-07-15T02:43:28.045Z,21.37
2023-07-15T02:43:40.246Z,21.39
2023-07-15T02:43:52.725Z,21.36
2023-07-15T02:44:06.787Z,21.37
2023-07-15T02:44:19.062Z,21.36
2023-07-15T02:44:32.016Z,21.36
2023-07-15T02:44:46.483Z,21.36
2023-07-15T02:44:58.768Z,21.34
2023-07-15T02:45:13.184Z,21.35
2023-07-15T02:45:25.704Z,21.37
2023-07-15T02:45:38.030Z,21.37
2023-07-15T02:45:52.162Z,21.36
2023-07-15T02:46:04.467Z,21.36
2023-07-15T02:46:18.907Z,21.35
2023-07-15T02:46:31.571Z,21.35
2023-07-15T02:46:43.992Z,21.35
2023-07-15T02:46:57.269Z,21.34
2023-07-15T02:47:09.813Z,21.37
2023-07-15T02:47:24.334Z,21.31
2023-07-15T02:47:36.901Z,21.29
2023-07-15T02:47:51.451Z,21.37
2023-07-15T02:48:03.888Z,21.37
2023-07-15T02:48:16.732Z,21.33
2023-07-15T02:48:29.505Z,21.36
2023-07-15T02:48:44.693Z,21.38
2023-07-15T02:48:57.816Z,21.29
2023-07-15T02:49:12.733Z,21.34
2023-07-15T02:49:25.107Z,21.37
2023-07-15T02:49:37.647Z,21.31
2023-07-15T02:49:49.985Z,21.36
2023-07-15T02:50:05.593Z,21.32
2023-07-15T02:50:18.398Z,21.29
2023-07-15T02:50:31.246Z,21.35
2023-07-15T02:50:43.759Z,21.36
2023-07-15T02:50:57.074Z,21.36
2023-07-15T02:51:09.420Z,21.36
2023-07-15T02:51:21.909Z,21.36
2023-07-15T02:51:34.503Z,21.37
2023-07-15T02:51:47.135Z,21.33
2023-07-15T02:52:01.274Z,21.35
2023-07-15T02:52:13.873Z,21.36
2023-07-15T02:52:26.830Z,21.33
2023-07-15T02:52:40.133Z,21.35